createdAt,value
2018-03-24T00:01:55.800Z,61.22
2018-03-24T00:04:23.280Z,61.28
2018-03-24T00:06:50.860Z,61.28
2018-03-24T00:09:18.269Z,61.33
2018-03-24T00:11:45.755Z,61.57
2018-03-24T00:14:13.245Z,61.82
2018-03-24T00:16:40.722Z,61.77
2018-03-24T00:19:08.112Z,61.95
2018-03-24T00:21:35.513Z,62.02
2018-03-24T00:24:02.924Z,62.08
2018-03-24T00:26:30.328Z,62.42
2018-03-24T00:28:58.109Z,62.98
2018-03-24T00:31:25.528Z,63.07
2018-03-24T00:33:52.951Z,62.95
2018-03-24T00:36:20.438Z,62.79
2018-03-24T00:38:47.943Z,62.45
2018-03-24T00:41:15.369Z,62.60
2018-03-24T00:43:42.825Z,62.83
2018-03-24T00:46:10.283Z,62.93
2018-03-24T00:48:37.737Z,62.73
2018-03-24T00:51:05.238Z,62.64
2018-03-24T00:53:32.680Z,62.50
2018-03-24T00:56:00.114Z,62.68
2018-03-24T00:58:27.547Z,62.41
2018-03-24T01:00:55.005Z,62.54
2018-03-24T01:03:22.452Z,62.65
2018-03-24T01:05:49.885Z,62.99
2018-03-24T01:08:17.293Z,63.47
2018-03-24T01:10:44.754Z,63.43
2018-03-24T01:13:12.211Z,63.41
2018-03-24T01:15:39.690Z,63.35
2018-03-24T01:18:07.110Z,63.61
2018-03-24T01:20:34.564Z,63.77
2018-03-24T01:23:01.951Z,63.78
2018-03-24T01:25:29.385Z,63.81
2018-03-24T01:27:56.792Z,63.80
2018-03-24T01:30:24.261Z,64.11
2018-03-24T01:32:51.677Z,64.21
2018-03-24T01:35:19.163Z,64.06
2018-03-24T01:37:46.921Z,64.08
2018-03-24T01:40:15.081Z,64.00
2018-03-24T01:42:42.492Z,64.23
2018-03-24T01:45:09.947Z,64.72
2018-03-24T01:47:37.368Z,65.02
2018-03-24T01:50:04.822Z,65.62
2018-03-24T01:52:32.242Z,65.42
2018-03-24T01:55:00.204Z,65.20
2018-03-24T01:57:28.483Z,65.09
2018-03-24T01:59:56.624Z,65.29
2018-03-24T02:02:24.045Z,65.36
2018-03-24T02:04:51.564Z,65.25
2018-03-24T02:07:19.019Z,65.14
2018-03-24T02:09:46.476Z,65.03
2018-03-24T02:12:13.942Z,64.92
2018-03-24T02:14:41.359Z,64.79
2018-03-24T02:17:08.799Z,64.58
2018-03-24T02:19:36.242Z,64.32
2018-03-24T02:22:03.674Z,64.50
2018-03-24T02:24:31.205Z,64.59
2018-03-24T02:26:58.694Z,64.82
2018-03-24T02:29:26.154Z,64.88
2018-03-24T02:31:53.605Z,64.84
2018-03-24T02:34:21.040Z,64.64
2018-03-24T02:36:48.538Z,64.73
2018-03-24T02:39:15.928Z,64.82
2018-03-24T02:41:43.384Z,64.73
2018-03-24T02:44:10.790Z,64.63
2018-03-24T02:46:38.263Z,64.49
2018-03-24T02:49:05.689Z,64.49
2018-03-24T02:51:33.143Z,64.51
2018-03-24T02:54:00.561Z,64.66
2018-03-24T02:56:27.985Z,64.95
2018-03-24T02:58:55.432Z,65.26
2018-03-24T03:01:22.851Z,65.55
2018-03-24T03:03:50.290Z,65.62
2018-03-24T03:06:17.743Z,65.24
2018-03-24T03:08:45.156Z,65.31
2018-03-24T03:11:12.568Z,65.22
2018-03-24T03:13:39.997Z,65.04
2018-03-24T03:16:07.418Z,65.35
2018-03-24T03:18:34.804Z,65.16
2018-03-24T03:21:02.259Z,65.26
2018-03-24T03:23:29.669Z,65.19
2018-03-24T03:25:57.130Z,65.05
2018-03-24T03:28:24.557Z,65.56
2018-03-24T03:33:48.033Z,66.64
2018-03-24T03:36:15.490Z,66.73
2018-03-24T03:38:42.921Z,67.04
2018-03-24T03:41:10.349Z,67.22
2018-03-24T03:43:37.825Z,67.16
2018-03-24T03:46:05.223Z,67.20
2018-03-24T03:48:32.619Z,67.26
2018-03-24T03:51:00.221Z,67.20
2018-03-24T03:53:27.649Z,67.50
2018-03-24T03:55:55.298Z,67.57
2018-03-24T03:58:22.692Z,67.63
2018-03-24T04:00:50.166Z,67.43
2018-03-24T04:03:17.596Z,67.21
2018-03-24T04:05:45.360Z,67.30
2018-03-24T04:08:12.897Z,67.35
2018-03-24T04:10:40.484Z,67.27
2018-03-24T04:13:07.873Z,67.28
2018-03-24T04:15:36.160Z,67.71
2018-03-24T04:18:03.824Z,67.59
2018-03-24T04:20:31.280Z,67.57
2018-03-24T04:22:58.702Z,67.76
2018-03-24T04:25:26.202Z,67.77
2018-03-24T04:27:53.635Z,67.65
2018-03-24T04:30:21.020Z,67.82
2018-03-24T04:32:48.971Z,67.77
2018-03-24T04:35:16.409Z,67.92
2018-03-24T04:37:43.830Z,67.78
2018-03-24T04:40:11.250Z,67.56
2018-03-24T04:42:38.674Z,67.56
2018-03-24T04:45:06.159Z,67.48
2018-03-24T04:47:33.574Z,67.40
2018-03-24T04:50:01.225Z,67.35
2018-03-24T04:52:28.636Z,67.50
2018-03-24T04:54:56.061Z,67.50
2018-03-24T04:57:23.984Z,67.17
2018-03-24T04:59:51.377Z,67.14
2018-03-24T05:02:18.813Z,67.41
2018-03-24T05:04:46.238Z,67.53
2018-03-24T05:07:13.837Z,67.42
2018-03-24T05:09:41.301Z,67.50
2018-03-24T05:12:08.748Z,67.35
2018-03-24T05:14:36.189Z,67.00
2018-03-24T05:17:03.680Z,66.85
2018-03-24T05:19:31.123Z,66.80
2018-03-24T05:21:58.544Z,67.13
2018-03-24T05:24:26.031Z,66.97
2018-03-24T05:26:53.440Z,66.58
2018-03-24T05:29:20.881Z,66.43
2018-03-24T05:31:48.413Z,66.27
2018-03-24T05:34:15.810Z,66.26
2018-03-24T05:36:43.374Z,66.56
2018-03-24T05:39:10.984Z,66.53
2018-03-24T05:41:38.735Z,66.39
2018-03-24T05:44:06.341Z,66.37
2018-03-24T05:46:33.830Z,66.42
2018-03-24T05:49:01.287Z,66.56
2018-03-24T05:51:28.674Z,66.54
2018-03-24T05:53:56.084Z,66.63
2018-03-24T05:56:23.646Z,66.38
2018-03-24T05:58:51.028Z,64.75
2018-03-24T06:01:18.505Z,63.02
2018-03-24T06:03:46.020Z,62.22
2018-03-24T06:06:13.486Z,61.33
2018-03-24T06:08:40.886Z,60.06
2018-03-24T06:11:08.346Z,58.47
2018-03-24T06:13:35.810Z,56.95
2018-03-24T06:16:03.234Z,55.68
2018-03-24T06:18:30.652Z,54.49
2018-03-24T06:20:58.095Z,53.73
2018-03-24T06:23:25.505Z,53.11
2018-03-24T06:25:52.938Z,52.04
2018-03-24T06:28:20.398Z,51.50
2018-03-24T06:30:50.160Z,50.73
2018-03-24T06:33:17.544Z,49.97
2018-03-24T06:35:45.007Z,49.16
2018-03-24T06:38:12.442Z,48.48
2018-03-24T06:40:39.922Z,47.78
2018-03-24T06:43:07.538Z,46.13
2018-03-24T06:45:34.966Z,45.42
2018-03-24T06:48:02.430Z,44.71
2018-03-24T06:50:29.882Z,44.81
2018-03-24T06:52:57.282Z,44.18
2018-03-24T06:55:24.829Z,43.53
2018-03-24T06:57:52.246Z,42.72
2018-03-24T07:00:19.777Z,41.60
2018-03-24T07:02:47.230Z,40.91
2018-03-24T07:05:14.860Z,40.62
2018-03-24T07:07:42.279Z,40.20
2018-03-24T07:10:09.701Z,39.93
2018-03-24T07:12:38.031Z,39.45
2018-03-24T07:15:05.444Z,38.79
2018-03-24T07:17:32.869Z,38.40
2018-03-24T07:20:00.442Z,38.24
2018-03-24T07:22:27.883Z,38.42
2018-03-24T07:24:55.317Z,38.32
2018-03-24T07:27:22.744Z,38.73
2018-03-24T07:29:50.169Z,38.13
2018-03-24T07:32:17.606Z,37.07
2018-03-24T07:34:45.021Z,36.37
2018-03-24T07:37:12.454Z,36.12
2018-03-24T07:39:40.570Z,36.07
2018-03-24T07:42:08.026Z,35.83
2018-03-24T07:44:35.469Z,36.34
2018-03-24T07:47:03.061Z,35.93
2018-03-24T07:49:30.504Z,36.39
2018-03-24T07:51:57.937Z,36.15
2018-03-24T07:54:25.344Z,35.01
2018-03-24T07:56:52.786Z,34.19
2018-03-24T07:59:20.521Z,33.32
2018-03-24T08:01:47.942Z,32.70
2018-03-24T08:04:15.422Z,32.24
2018-03-24T08:06:42.909Z,31.82
2018-03-24T08:09:10.370Z,32.18
2018-03-24T08:11:37.805Z,32.07
2018-03-24T08:14:05.304Z,32.08
2018-03-24T08:16:32.736Z,31.73
2018-03-24T08:19:00.198Z,31.16
2018-03-24T08:21:27.645Z,31.21
2018-03-24T08:23:55.042Z,31.41
2018-03-24T08:26:22.481Z,31.06
2018-03-24T08:28:50.256Z,30.50
2018-03-24T08:31:17.709Z,30.73
2018-03-24T08:33:45.118Z,30.63
2018-03-24T08:36:12.544Z,30.32
2018-03-24T08:38:40.015Z,30.45
2018-03-24T08:41:07.441Z,30.90
2018-03-24T08:43:35.514Z,31.57
2018-03-24T08:46:02.958Z,32.47
2018-03-24T08:48:30.410Z,33.21
2018-03-24T08:50:57.804Z,33.24
2018-03-24T08:53:25.208Z,33.21
2018-03-24T08:55:52.661Z,32.94
2018-03-24T08:58:20.126Z,32.92
2018-03-24T09:00:47.574Z,33.33
2018-03-24T09:03:14.986Z,33.62
2018-03-24T09:05:42.405Z,33.29
2018-03-24T09:08:10.779Z,33.60
2018-03-24T09:10:38.239Z,33.83
2018-03-24T09:13:05.671Z,32.87
2018-03-24T09:15:33.210Z,32.87
2018-03-24T09:18:00.618Z,33.85
2018-03-24T09:20:28.055Z,34.66
2018-03-24T09:22:55.495Z,34.69
2018-03-24T09:25:22.957Z,35.20
2018-03-24T09:27:50.405Z,35.40
2018-03-24T09:30:17.838Z,35.36
2018-03-24T09:32:45.298Z,35.24
2018-03-24T09:35:12.828Z,35.47
2018-03-24T09:37:40.290Z,36.00
2018-03-24T09:40:07.806Z,35.94
2018-03-24T09:42:35.310Z,36.43
2018-03-24T09:45:03.784Z,36.59
2018-03-24T09:47:31.219Z,36.89
2018-03-24T09:49:58.591Z,37.20
2018-03-24T09:52:26.457Z,37.08
2018-03-24T09:54:54.461Z,36.36
2018-03-24T09:57:21.909Z,36.30
2018-03-24T09:59:49.369Z,35.61
2018-03-24T10:02:16.800Z,35.53
2018-03-24T10:04:44.353Z,34.74
2018-03-24T10:07:11.846Z,34.67
2018-03-24T10:09:39.484Z,34.49
2018-03-24T10:12:06.916Z,34.38
2018-03-24T10:14:34.350Z,34.41
2018-03-24T10:17:01.823Z,33.91
2018-03-24T10:19:29.245Z,33.82
2018-03-24T10:24:55.128Z,34.48
2018-03-24T10:27:22.593Z,34.67
2018-03-24T10:29:50.025Z,34.53
2018-03-24T10:32:17.479Z,34.26
2018-03-24T10:34:44.914Z,33.91
2018-03-24T10:37:12.348Z,33.93
2018-03-24T10:39:39.830Z,33.81
2018-03-24T10:42:07.271Z,33.24
2018-03-24T10:47:08.469Z,32.75
2018-03-24T10:49:35.869Z,32.62
2018-03-24T10:52:03.319Z,33.06
2018-03-24T10:54:30.711Z,33.80
2018-03-24T10:56:58.185Z,33.38
2018-03-24T10:59:25.593Z,33.01
2018-03-24T11:01:53.051Z,33.49
2018-03-24T11:04:20.479Z,33.84
2018-03-24T11:06:47.925Z,34.26
2018-03-24T11:09:15.331Z,34.70
2018-03-24T11:11:42.769Z,33.60
2018-03-24T11:14:10.196Z,32.81
2018-03-24T11:16:37.588Z,32.86
2018-03-24T11:19:05.021Z,32.11
2018-03-24T11:21:32.513Z,31.22
2018-03-24T11:23:59.937Z,30.58
2018-03-24T11:26:27.549Z,30.30
2018-03-24T11:28:54.974Z,31.23
2018-03-24T11:31:22.432Z,31.63
2018-03-24T11:33:50.108Z,31.65
2018-03-24T11:36:18.378Z,32.87
2018-03-24T11:38:45.855Z,32.64
2018-03-24T11:41:13.290Z,33.24
2018-03-24T11:43:40.690Z,33.52
2018-03-24T11:46:08.504Z,32.74
2018-03-24T11:48:36.091Z,32.42
2018-03-24T11:51:03.534Z,33.17
2018-03-24T11:53:42.867Z,32.39
2018-03-24T11:56:10.440Z,32.50
2018-03-24T11:58:37.863Z,32.21
2018-03-24T12:01:05.357Z,32.08
2018-03-24T12:03:32.774Z,31.37
2018-03-24T12:06:00.258Z,30.53
2018-03-24T12:08:27.726Z,30.37
2018-03-24T12:10:55.152Z,30.16
2018-03-24T12:13:22.560Z,30.29
2018-03-24T12:15:49.997Z,29.62
2018-03-24T12:18:17.428Z,29.64
2018-03-24T12:20:44.891Z,27.93
2018-03-24T12:23:12.297Z,26.62
2018-03-24T12:25:39.732Z,26.35
2018-03-24T12:28:07.169Z,26.85
2018-03-24T12:30:34.596Z,26.92
2018-03-24T12:33:02.027Z,27.02
2018-03-24T12:35:29.381Z,26.14
2018-03-24T12:37:56.781Z,25.83
2018-03-24T12:40:24.409Z,25.25
2018-03-24T12:42:51.809Z,24.93
2018-03-24T12:45:19.244Z,24.96
2018-03-24T12:47:46.681Z,25.02
2018-03-24T12:50:14.113Z,25.09
2018-03-24T12:52:41.636Z,24.58
2018-03-24T12:55:09.109Z,24.17
2018-03-24T12:57:36.584Z,23.58
2018-03-24T13:00:04.024Z,23.46
2018-03-24T13:02:31.486Z,23.30
2018-03-24T13:04:58.901Z,23.65
2018-03-24T13:07:26.366Z,23.49
2018-03-24T13:09:53.857Z,23.02
2018-03-24T13:12:21.393Z,23.21
2018-03-24T13:14:48.849Z,23.27
2018-03-24T13:17:16.686Z,23.88
2018-03-24T13:19:44.122Z,24.17
2018-03-24T13:22:11.496Z,24.49
2018-03-24T13:24:38.890Z,24.72
2018-03-24T13:27:06.365Z,24.55
2018-03-24T13:29:33.834Z,25.98
2018-03-24T13:32:01.253Z,27.59
2018-03-24T13:34:28.730Z,28.21
2018-03-24T13:36:56.176Z,27.89
2018-03-24T13:39:23.730Z,26.73
2018-03-24T13:41:51.207Z,27.32
2018-03-24T13:44:19.035Z,27.54
2018-03-24T13:46:46.490Z,27.79
2018-03-24T13:49:13.921Z,27.76
2018-03-24T13:51:41.322Z,27.30
2018-03-24T13:54:09.262Z,27.42
2018-03-24T13:56:36.742Z,27.70
2018-03-24T13:59:04.171Z,27.97
2018-03-24T14:01:31.816Z,27.92
2018-03-24T14:03:59.223Z,27.83
2018-03-24T14:06:26.649Z,27.60
2018-03-24T14:08:54.085Z,26.70
2018-03-24T14:11:21.599Z,26.16
2018-03-24T14:13:49.061Z,26.15
2018-03-24T14:16:16.554Z,26.22
2018-03-24T14:18:44.087Z,26.16
2018-03-24T14:21:11.965Z,26.08
2018-03-24T14:23:39.395Z,25.88
2018-03-24T14:26:06.816Z,26.05
2018-03-24T14:28:34.328Z,26.16
2018-03-24T14:31:01.790Z,26.04
2018-03-24T14:33:29.213Z,25.87
2018-03-24T14:35:56.626Z,26.18
2018-03-24T14:38:24.092Z,26.31
2018-03-24T14:40:51.922Z,26.32
2018-03-24T14:43:19.434Z,26.63
2018-03-24T14:45:47.070Z,27.12
2018-03-24T14:48:14.452Z,27.05
2018-03-24T14:50:41.894Z,26.86
2018-03-24T14:53:09.320Z,26.88
2018-03-24T14:55:36.775Z,26.99
2018-03-24T14:58:04.180Z,27.40
2018-03-24T15:00:32.464Z,27.59
2018-03-24T15:03:00.196Z,27.24
2018-03-24T15:05:27.606Z,27.16
2018-03-24T15:07:55.007Z,26.99
2018-03-24T15:10:22.452Z,27.08
2018-03-24T15:12:49.865Z,26.92
2018-03-24T15:15:17.262Z,26.69
2018-03-24T15:17:44.752Z,26.53
2018-03-24T15:20:12.172Z,26.30
2018-03-24T15:22:39.659Z,26.37
2018-03-24T15:25:07.446Z,26.40
2018-03-24T15:27:34.934Z,27.53
2018-03-24T15:30:14.061Z,29.50
2018-03-24T15:32:52.320Z,29.30
2018-03-24T15:35:34.348Z,30.09
2018-03-24T15:38:01.818Z,30.82
2018-03-24T15:40:29.252Z,30.97
2018-03-24T15:42:56.671Z,31.63
2018-03-24T15:45:24.078Z,32.17
2018-03-24T15:47:51.616Z,32.44
2018-03-24T15:50:19.122Z,32.40
2018-03-24T15:52:46.574Z,32.26
2018-03-24T15:55:14.028Z,31.88
2018-03-24T15:57:41.569Z,31.89
2018-03-24T16:00:08.961Z,31.70
2018-03-24T16:02:36.366Z,31.43
2018-03-24T16:05:03.789Z,31.22
2018-03-24T16:07:31.591Z,31.31
2018-03-24T16:09:59.051Z,31.01
2018-03-24T16:12:26.532Z,30.81
2018-03-24T16:14:53.962Z,31.17
2018-03-24T16:17:21.556Z,31.24
2018-03-24T16:19:48.990Z,31.67
2018-03-24T16:22:16.471Z,32.20
2018-03-24T16:24:43.968Z,32.52
2018-03-24T16:27:11.499Z,32.23
2018-03-24T16:29:38.937Z,32.87
2018-03-24T16:32:06.607Z,33.26
2018-03-24T16:34:34.349Z,33.24
2018-03-24T16:37:01.746Z,33.26
2018-03-24T16:39:29.226Z,33.51
2018-03-24T16:41:56.639Z,33.48
2018-03-24T16:44:24.065Z,33.41
2018-03-24T16:46:51.515Z,33.18
2018-03-24T16:49:18.959Z,33.40
2018-03-24T16:51:46.441Z,34.33
2018-03-24T16:54:13.872Z,34.09
2018-03-24T16:56:41.288Z,34.23
2018-03-24T16:59:08.730Z,34.73
2018-03-24T17:01:36.296Z,35.06
2018-03-24T17:04:03.725Z,35.49
2018-03-24T17:06:31.220Z,36.18
2018-03-24T17:08:58.774Z,37.47
2018-03-24T17:11:26.229Z,39.17
2018-03-24T17:13:53.694Z,40.18
2018-03-24T17:16:21.121Z,40.87
2018-03-24T17:18:48.548Z,40.77
2018-03-24T17:21:16.001Z,40.91
2018-03-24T17:23:43.481Z,41.35
2018-03-24T17:26:10.883Z,41.69
2018-03-24T17:28:38.277Z,41.27
2018-03-24T17:31:05.679Z,41.06
2018-03-24T17:33:33.075Z,40.45
2018-03-24T17:36:01.147Z,40.10
2018-03-24T17:38:28.570Z,39.90
2018-03-24T17:40:56.084Z,39.95
2018-03-24T17:43:23.519Z,40.15
2018-03-24T17:45:51.043Z,40.98
2018-03-24T17:48:18.586Z,41.90
2018-03-24T17:50:45.972Z,42.66
2018-03-24T17:53:13.426Z,43.26
2018-03-24T17:55:40.900Z,43.73
2018-03-24T17:58:08.328Z,43.65
2018-03-24T18:00:35.782Z,43.53
2018-03-24T18:03:03.235Z,43.12
2018-03-24T18:05:30.664Z,42.51
2018-03-24T18:07:58.165Z,42.14
2018-03-24T18:10:25.728Z,41.97
2018-03-24T18:12:53.282Z,42.19
2018-03-24T18:15:20.840Z,42.24
2018-03-24T18:17:48.232Z,42.26
2018-03-24T18:20:15.656Z,42.15
2018-03-24T18:22:43.088Z,41.88
2018-03-24T18:25:10.476Z,41.48
2018-03-24T18:27:38.355Z,41.47
2018-03-24T18:30:05.829Z,41.22
2018-03-24T18:32:33.250Z,41.14
2018-03-24T18:35:00.703Z,41.12
2018-03-24T18:37:28.125Z,41.22
2018-03-24T18:39:56.371Z,41.23
2018-03-24T18:42:23.779Z,42.66
2018-03-24T18:44:51.193Z,43.28
2018-03-24T18:47:18.698Z,43.73
2018-03-24T18:49:46.131Z,43.89
2018-03-24T18:52:13.557Z,43.38
2018-03-24T18:54:41.023Z,43.62
2018-03-24T18:57:08.566Z,43.92
2018-03-24T18:59:35.974Z,44.29
2018-03-24T19:02:03.430Z,44.74
2018-03-24T19:04:30.844Z,44.92
2018-03-24T19:06:58.363Z,44.87
2018-03-24T19:09:25.840Z,45.23
2018-03-24T19:11:53.248Z,45.39
2018-03-24T19:14:20.705Z,45.35
2018-03-24T19:16:48.134Z,44.81
2018-03-24T19:19:15.573Z,44.61
2018-03-24T19:21:42.997Z,44.55
2018-03-24T19:24:10.488Z,44.63
2018-03-24T19:26:37.931Z,44.41
2018-03-24T19:29:05.357Z,44.29
2018-03-24T19:31:32.870Z,43.64
2018-03-24T19:34:00.278Z,43.33
2018-03-24T19:36:27.756Z,44.03
2018-03-24T19:38:55.864Z,44.97
2018-03-24T19:41:23.331Z,45.63
2018-03-24T19:43:50.904Z,45.83
2018-03-24T19:46:18.520Z,46.16
2018-03-24T19:48:45.990Z,46.45
2018-03-24T19:51:13.448Z,46.01
2018-03-24T19:53:40.910Z,44.47
2018-03-24T19:56:08.358Z,44.78
2018-03-24T19:58:35.880Z,45.01
2018-03-24T20:01:03.349Z,44.28
2018-03-24T20:03:30.751Z,43.68
2018-03-24T20:05:58.205Z,43.21
2018-03-24T20:08:25.649Z,42.99
2018-03-24T20:10:53.272Z,42.84
2018-03-24T20:13:20.714Z,42.80
2018-03-24T20:15:48.468Z,42.57
2018-03-24T20:18:16.297Z,42.14
2018-03-24T20:20:43.737Z,41.71
2018-03-24T20:23:11.144Z,41.65
2018-03-24T20:25:38.620Z,42.20
2018-03-24T20:28:06.032Z,43.53
2018-03-24T20:30:33.479Z,44.48
2018-03-24T20:33:01.015Z,44.65
2018-03-24T20:35:28.423Z,44.46
2018-03-24T20:37:56.010Z,44.76
2018-03-24T20:40:23.434Z,44.63
2018-03-24T20:42:50.918Z,44.80
2018-03-24T20:45:18.391Z,45.03
2018-03-24T20:47:45.989Z,45.39
2018-03-24T20:50:13.344Z,45.66
2018-03-24T20:52:40.763Z,45.68
2018-03-24T20:55:08.218Z,45.57
2018-03-24T20:57:35.788Z,45.37
2018-03-24T21:00:03.241Z,45.54
2018-03-24T21:02:30.911Z,45.69
2018-03-24T21:04:58.363Z,45.87
2018-03-24T21:07:25.755Z,45.88
2018-03-24T21:09:53.206Z,46.43
2018-03-24T21:12:20.655Z,46.54
2018-03-24T21:14:48.101Z,46.39
2018-03-24T21:17:15.541Z,46.29
2018-03-24T21:19:43.108Z,46.23
2018-03-24T21:22:10.564Z,46.43
2018-03-24T21:24:37.984Z,46.29
2018-03-24T21:27:05.479Z,46.62
2018-03-24T21:29:32.870Z,46.75
2018-03-24T21:32:00.327Z,46.73
2018-03-24T21:34:27.804Z,46.90
2018-03-24T21:36:55.243Z,47.22
2018-03-24T21:39:22.671Z,47.08
2018-03-24T21:41:50.104Z,47.10
2018-03-24T21:44:17.525Z,46.90
2018-03-24T21:46:44.963Z,46.90
2018-03-24T21:49:12.367Z,47.46
2018-03-24T21:51:40.517Z,47.80
2018-03-24T21:54:07.891Z,48.17
2018-03-24T21:56:35.287Z,48.23
2018-03-24T21:59:02.754Z,48.17
2018-03-24T22:01:30.290Z,48.03
2018-03-24T22:03:57.743Z,48.28
2018-03-24T22:06:25.138Z,48.55
2018-03-24T22:08:52.574Z,48.46
2018-03-24T22:11:20.001Z,48.44
2018-03-24T22:13:47.389Z,48.57
2018-03-24T22:16:14.837Z,48.84
2018-03-24T22:18:42.325Z,49.00
2018-03-24T22:21:09.747Z,49.38
2018-03-24T22:23:37.152Z,49.53
2018-03-24T22:26:04.585Z,49.53
2018-03-24T22:28:31.972Z,49.54
2018-03-24T22:30:59.385Z,49.56
2018-03-24T22:33:26.788Z,49.54
2018-03-24T22:35:54.232Z,49.53
2018-03-24T22:38:21.654Z,49.76
2018-03-24T22:40:49.081Z,50.15
2018-03-24T22:43:16.558Z,50.44
2018-03-24T22:45:43.985Z,50.61
2018-03-24T22:48:11.406Z,50.79
2018-03-24T22:50:38.829Z,51.18
2018-03-24T22:53:06.314Z,51.71
2018-03-24T22:55:33.810Z,52.32
2018-03-24T22:58:01.258Z,52.77
2018-03-24T23:00:28.720Z,53.14
2018-03-24T23:02:56.211Z,53.26
2018-03-24T23:05:23.682Z,53.06
2018-03-24T23:07:51.098Z,53.22
2018-03-24T23:10:18.576Z,53.30
2018-03-24T23:12:46.042Z,53.61
2018-03-24T23:15:13.513Z,53.92
2018-03-24T23:17:41.063Z,54.20
2018-03-24T23:20:08.510Z,54.82
2018-03-24T23:22:35.928Z,55.35
2018-03-24T23:25:03.359Z,55.99
2018-03-24T23:27:30.746Z,56.32
2018-03-24T23:29:58.338Z,56.12
2018-03-24T23:32:25.756Z,56.05
2018-03-24T23:34:53.144Z,55.61
2018-03-24T23:37:20.593Z,55.12
2018-03-24T23:39:47.982Z,54.75
2018-03-24T23:42:15.488Z,55.17
2018-03-24T23:44:43.085Z,55.22
2018-03-24T23:47:10.551Z,55.31
2018-03-24T23:49:37.936Z,55.45
2018-03-24T23:52:05.373Z,55.28
2018-03-24T23:54:32.835Z,55.48
2018-03-24T23:57:00.265Z,55.54
2018-03-24T23:59:27.853Z,55.84
